sensor_id;sensor_type;location;lat;lon;timestamp;P1;durP1;ratioP1;P2;durP2;ratioP2
7316;SDS011;3699;51.462;6.696;2023-05-07T00:00:19;12.93;;;9.00;;
7316;SDS011;3699;51.462;6.696;2023-05-07T00:02:48;11.37;;;8.50;;
7316;SDS011;3699;51.462;6.696;2023-05-07T00:05:14;9.87;;;8.67;;
7316;SDS011;3699;51.462;6.696;2023-05-07T00:07:42;12.40;;;9.30;;
7316;SDS011;3699;51.462;6.696;2023-05-07T00:10:09;13.73;;;8.60;;
7316;SDS011;3699;51.462;6.696;2023-05-07T00:12:37;10.00;;;8.17;;
7316;SDS011;3699;51.462;6.696;2023-05-07T00:15:04;13.37;;;8.63;;
7316;SDS011;3699;51.462;6.696;2023-05-07T00:17:32;11.30;;;8.30;;
7316;SDS011;3699;51.462;6.696;2023-05-07T00:20:00;12.00;;;8.80;;
7316;SDS011;3699;51.462;6.696;2023-05-07T00:22:28;12.93;;;10.47;;
7316;SDS011;3699;51.462;6.696;2023-05-07T00:24:55;11.50;;;10.13;;
7316;SDS011;3699;51.462;6.696;2023-05-07T00:27:22;13.63;;;10.50;;
7316;SDS011;3699;51.462;6.696;2023-05-07T00:29:48;12.13;;;10.67;;
7316;SDS011;3699;51.462;6.696;2023-05-07T00:32:15;14.30;;;11.07;;
7316;SDS011;3699;51.462;6.696;2023-05-07T00:34:42;13.40;;;11.03;;
7316;SDS011;3699;51.462;6.696;2023-05-07T00:37:11;12.77;;;11.40;;
7316;SDS011;3699;51.462;6.696;2023-05-07T00:39:37;15.73;;;11.20;;
7316;SDS011;3699;51.462;6.696;2023-05-07T00:42:05;13.40;;;10.77;;
7316;SDS011;3699;51.462;6.696;2023-05-07T00:44:31;13.70;;;11.47;;
7316;SDS011;3699;51.462;6.696;2023-05-07T00:46:58;14.67;;;11.67;;
7316;SDS011;3699;51.462;6.696;2023-05-07T00:49:31;16.73;;;12.30;;
7316;SDS011;3699;51.462;6.696;2023-05-07T00:52:03;12.23;;;10.80;;
7316;SDS011;3699;51.462;6.696;2023-05-07T00:54:32;17.17;;;11.30;;
7316;SDS011;3699;51.462;6.696;2023-05-07T00:57:01;16.77;;;11.70;;
7316;SDS011;3699;51.462;6.696;2023-05-07T00:59:29;14.57;;;11.53;;
7316;SDS011;3699;51.462;6.696;2023-05-07T01:01:56;17.07;;;12.83;;
7316;SDS011;3699;51.462;6.696;2023-05-07T01:04:23;13.53;;;11.27;;
7316;SDS011;3699;51.462;6.696;2023-05-07T01:06:50;12.17;;;10.70;;
7316;SDS011;3699;51.462;6.696;2023-05-07T01:09:18;15.37;;;11.37;;
7316;SDS011;3699;51.462;6.696;2023-05-07T01:11:47;18.97;;;12.37;;
7316;SDS011;3699;51.462;6.696;2023-05-07T01:14:15;18.47;;;12.40;;
7316;SDS011;3699;51.462;6.696;2023-05-07T01:16:42;14.73;;;12.20;;
7316;SDS011;3699;51.462;6.696;2023-05-07T01:19:10;14.07;;;11.90;;
7316;SDS011;3699;51.462;6.696;2023-05-07T01:21:41;15.50;;;12.07;;
7316;SDS011;3699;51.462;6.696;2023-05-07T01:24:13;18.73;;;12.80;;
7316;SDS011;3699;51.462;6.696;2023-05-07T01:26:41;16.13;;;11.70;;
7316;SDS011;3699;51.462;6.696;2023-05-07T01:29:09;13.80;;;11.77;;
7316;SDS011;3699;51.462;6.696;2023-05-07T01:31:36;14.97;;;12.27;;
7316;SDS011;3699;51.462;6.696;2023-05-07T01:34:04;13.07;;;11.50;;
7316;SDS011;3699;51.462;6.696;2023-05-07T01:36:34;16.67;;;13.03;;
7316;SDS011;3699;51.462;6.696;2023-05-07T01:39:03;16.33;;;12.97;;
7316;SDS011;3699;51.462;6.696;2023-05-07T01:41:32;17.57;;;13.70;;
7316;SDS011;3699;51.462;6.696;2023-05-07T01:43:59;16.37;;;13.30;;
7316;SDS011;3699;51.462;6.696;2023-05-07T01:46:27;17.00;;;13.30;;
7316;SDS011;3699;51.462;6.696;2023-05-07T01:48:54;17.73;;;12.77;;
7316;SDS011;3699;51.462;6.696;2023-05-07T01:51:21;14.73;;;12.43;;
7316;SDS011;3699;51.462;6.696;2023-05-07T01:53:48;17.93;;;13.40;;
7316;SDS011;3699;51.462;6.696;2023-05-07T01:56:16;15.23;;;13.63;;
7316;SDS011;3699;51.462;6.696;2023-05-07T01:58:45;15.20;;;13.20;;
7316;SDS011;3699;51.462;6.696;2023-05-07T02:01:12;15.60;;;13.17;;
7316;SDS011;3699;51.462;6.696;2023-05-07T02:03:39;16.93;;;13.87;;
7316;SDS011;3699;51.462;6.696;2023-05-07T02:06:06;17.43;;;14.03;;
7316;SDS011;3699;51.462;6.696;2023-05-07T02:08:33;18.27;;;14.70;;
7316;SDS011;3699;51.462;6.696;2023-05-07T02:11:00;17.40;;;13.87;;
7316;SDS011;3699;51.462;6.696;2023-05-07T02:13:28;19.73;;;14.77;;
7316;SDS011;3699;51.462;6.696;2023-05-07T02:15:57;17.63;;;15.07;;
7316;SDS011;3699;51.462;6.696;2023-05-07T02:18:24;18.90;;;15.07;;
7316;SDS011;3699;51.462;6.696;2023-05-07T02:20:51;17.97;;;15.00;;
7316;SDS011;3699;51.462;6.696;2023-05-07T02:23:18;20.20;;;15.20;;
7316;SDS011;3699;51.462;6.696;2023-05-07T02:25:45;21.17;;;15.47;;
7316;SDS011;3699;51.462;6.696;2023-05-07T02:28:12;16.37;;;14.40;;
7316;SDS011;3699;51.462;6.696;2023-05-07T02:30:38;17.80;;;14.53;;
7316;SDS011;3699;51.462;6.696;2023-05-07T02:33:07;19.57;;;14.57;;
7316;SDS011;3699;51.462;6.696;2023-05-07T02:35:34;17.87;;;14.63;;
7316;SDS011;3699;51.462;6.696;2023-05-07T02:38:01;21.10;;;15.10;;
7316;SDS011;3699;51.462;6.696;2023-05-07T02:40:27;19.87;;;14.40;;
7316;SDS011;3699;51.462;6.696;2023-05-07T02:42:54;21.47;;;15.40;;
7316;SDS011;3699;51.462;6.696;2023-05-07T02:45:21;21.10;;;15.13;;
7316;SDS011;3699;51.462;6.696;2023-05-07T02:47:48;25.17;;;16.47;;
7316;SDS011;3699;51.462;6.696;2023-05-07T02:50:17;21.07;;;16.23;;
7316;SDS011;3699;51.462;6.696;2023-05-07T02:52:43;26.83;;;18.27;;
7316;SDS011;3699;51.462;6.696;2023-05-07T02:55:11;26.57;;;20.20;;
7316;SDS011;3699;51.462;6.696;2023-05-07T02:57:38;26.87;;;19.33;;
7316;SDS011;3699;51.462;6.696;2023-05-07T03:00:12;25.90;;;19.43;;
7316;SDS011;3699;51.462;6.696;2023-05-07T03:02:40;27.00;;;19.73;;
7316;SDS011;3699;51.462;6.696;2023-05-07T03:05:07;28.13;;;20.53;;
7316;SDS011;3699;51.462;6.696;2023-05-07T03:07:35;26.17;;;19.50;;
7316;SDS011;3699;51.462;6.696;2023-05-07T03:10:02;24.63;;;19.93;;
7316;SDS011;3699;51.462;6.696;2023-05-07T03:12:30;24.43;;;20.57;;
7316;SDS011;3699;51.462;6.696;2023-05-07T03:14:57;22.70;;;19.27;;
7316;SDS011;3699;51.462;6.696;2023-05-07T03:17:23;22.73;;;18.83;;
7316;SDS011;3699;51.462;6.696;2023-05-07T03:19:50;25.47;;;19.70;;
7316;SDS011;3699;51.462;6.696;2023-05-07T03:22:17;23.93;;;19.83;;
7316;SDS011;3699;51.462;6.696;2023-05-07T03:24:45;23.57;;;18.10;;
7316;SDS011;3699;51.462;6.696;2023-05-07T03:27:12;25.67;;;19.10;;
7316;SDS011;3699;51.462;6.696;2023-05-07T03:29:39;27.53;;;20.23;;
7316;SDS011;3699;51.462;6.696;2023-05-07T03:32:06;29.73;;;21.13;;
7316;SDS011;3699;51.462;6.696;2023-05-07T03:34:32;25.60;;;21.27;;
7316;SDS011;3699;51.462;6.696;2023-05-07T03:36:59;25.33;;;20.00;;
7316;SDS011;3699;51.462;6.696;2023-05-07T03:39:26;26.10;;;19.57;;
7316;SDS011;3699;51.462;6.696;2023-05-07T03:41:54;25.27;;;20.67;;
7316;SDS011;3699;51.462;6.696;2023-05-07T03:44:21;24.57;;;19.83;;
7316;SDS011;3699;51.462;6.696;2023-05-07T03:46:47;26.53;;;20.67;;
7316;SDS011;3699;51.462;6.696;2023-05-07T03:49:15;28.13;;;19.87;;
7316;SDS011;3699;51.462;6.696;2023-05-07T03:51:42;26.70;;;20.17;;
7316;SDS011;3699;51.462;6.696;2023-05-07T03:54:08;28.13;;;20.23;;
7316;SDS011;3699;51.462;6.696;2023-05-07T03:56:35;27.63;;;21.70;;
7316;SDS011;3699;51.462;6.696;2023-05-07T03:59:03;25.37;;;20.13;;
7316;SDS011;3699;51.462;6.696;2023-05-07T04:01:30;30.10;;;22.40;;
7316;SDS011;3699;51.462;6.696;2023-05-07T04:03:57;29.33;;;20.70;;
7316;SDS011;3699;51.462;6.696;2023-05-07T04:06:24;27.63;;;19.80;;
7316;SDS011;3699;51.462;6.696;2023-05-07T04:08:50;25.17;;;19.23;;
7316;SDS011;3699;51.462;6.696;2023-05-07T04:11:17;26.10;;;20.90;;
7316;SDS011;3699;51.462;6.696;2023-05-07T04:13:44;27.73;;;20.77;;
7316;SDS011;3699;51.462;6.696;2023-05-07T04:16:12;24.03;;;19.73;;
7316;SDS011;3699;51.462;6.696;2023-05-07T04:18:39;25.93;;;20.30;;
7316;SDS011;3699;51.462;6.696;2023-05-07T04:21:06;27.30;;;20.73;;
7316;SDS011;3699;51.462;6.696;2023-05-07T04:23:40;26.13;;;20.37;;
7316;SDS011;3699;51.462;6.696;2023-05-07T04:26:07;25.23;;;20.57;;
7316;SDS011;3699;51.462;6.696;2023-05-07T04:28:34;25.80;;;20.00;;
7316;SDS011;3699;51.462;6.696;2023-05-07T04:31:01;26.67;;;20.47;;
7316;SDS011;3699;51.462;6.696;2023-05-07T04:33:29;28.47;;;21.27;;
7316;SDS011;3699;51.462;6.696;2023-05-07T04:35:56;25.17;;;19.73;;
7316;SDS011;3699;51.462;6.696;2023-05-07T04:38:23;27.37;;;19.67;;
7316;SDS011;3699;51.462;6.696;2023-05-07T04:40:50;28.43;;;20.43;;
7316;SDS011;3699;51.462;6.696;2023-05-07T04:43:17;28.50;;;20.57;;
7316;SDS011;3699;51.462;6.696;2023-05-07T04:45:44;27.13;;;21.03;;
7316;SDS011;3699;51.462;6.696;2023-05-07T04:48:11;29.17;;;22.67;;
7316;SDS011;3699;51.462;6.696;2023-05-07T04:50:40;32.80;;;22.40;;
7316;SDS011;3699;51.462;6.696;2023-05-07T04:53:07;28.30;;;22.17;;
7316;SDS011;3699;51.462;6.696;2023-05-07T04:55:34;27.07;;;20.03;;
7316;SDS011;3699;51.462;6.696;2023-05-07T04:58:01;25.93;;;19.97;;
7316;SDS011;3699;51.462;6.696;2023-05-07T05:00:29;26.67;;;21.13;;
7316;SDS011;3699;51.462;6.696;2023-05-07T05:02:56;27.20;;;22.03;;
7316;SDS011;3699;51.462;6.696;2023-05-07T05:05:23;27.60;;;20.87;;
7316;SDS011;3699;51.462;6.696;2023-05-07T05:07:51;28.53;;;22.20;;
7316;SDS011;3699;51.462;6.696;2023-05-07T05:10:18;29.67;;;22.10;;
7316;SDS011;3699;51.462;6.696;2023-05-07T05:12:45;24.63;;;21.03;;
7316;SDS011;3699;51.462;6.696;2023-05-07T05:15:12;23.47;;;19.70;;
7316;SDS011;3699;51.462;6.696;2023-05-07T05:17:39;23.83;;;19.13;;
7316;SDS011;3699;51.462;6.696;2023-05-07T05:20:06;24.17;;;20.07;;
7316;SDS011;3699;51.462;6.696;2023-05-07T05:22:34;23.43;;;18.80;;
7316;SDS011;3699;51.462;6.696;2023-05-07T05:25:03;24.70;;;18.80;;
7316;SDS011;3699;51.462;6.696;2023-05-07T05:27:30;25.27;;;18.73;;
7316;SDS011;3699;51.462;6.696;2023-05-07T05:29:56;23.57;;;16.63;;
7316;SDS011;3699;51.462;6.696;2023-05-07T05:32:23;18.17;;;15.77;;
7316;SDS011;3699;51.462;6.696;2023-05-07T05:34:50;19.13;;;15.47;;
7316;SDS011;3699;51.462;6.696;2023-05-07T05:37:17;16.80;;;14.37;;
7316;SDS011;3699;51.462;6.696;2023-05-07T05:39:44;18.60;;;14.03;;
7316;SDS011;3699;51.462;6.696;2023-05-07T05:42:13;17.70;;;13.10;;
7316;SDS011;3699;51.462;6.696;2023-05-07T05:44:39;22.93;;;15.77;;
7316;SDS011;3699;51.462;6.696;2023-05-07T05:47:06;21.63;;;14.97;;
7316;SDS011;3699;51.462;6.696;2023-05-07T05:49:33;21.20;;;15.13;;
7316;SDS011;3699;51.462;6.696;2023-05-07T05:52:00;16.23;;;14.37;;
7316;SDS011;3699;51.462;6.696;2023-05-07T05:54:27;18.60;;;13.97;;
7316;SDS011;3699;51.462;6.696;2023-05-07T05:56:54;17.57;;;13.70;;
7316;SDS011;3699;51.462;6.696;2023-05-07T05:59:22;19.27;;;13.40;;
7316;SDS011;3699;51.462;6.696;2023-05-07T06:01:49;17.93;;;13.67;;
7316;SDS011;3699;51.462;6.696;2023-05-07T06:04:16;16.27;;;12.83;;
7316;SDS011;3699;51.462;6.696;2023-05-07T06:06:43;16.37;;;13.73;;
7316;SDS011;3699;51.462;6.696;2023-05-07T06:09:10;12.60;;;11.27;;
7316;SDS011;3699;51.462;6.696;2023-05-07T06:11:36;16.30;;;12.40;;
7316;SDS011;3699;51.462;6.696;2023-05-07T06:14:04;16.70;;;11.90;;
7316;SDS011;3699;51.462;6.696;2023-05-07T06:16:32;13.60;;;12.20;;
7316;SDS011;3699;51.462;6.696;2023-05-07T06:18:59;15.13;;;13.00;;
7316;SDS011;3699;51.462;6.696;2023-05-07T06:21:26;17.80;;;13.03;;
7316;SDS011;3699;51.462;6.696;2023-05-07T06:23:53;19.97;;;13.43;;
7316;SDS011;3699;51.462;6.696;2023-05-07T06:26:20;15.43;;;13.07;;
7316;SDS011;3699;51.462;6.696;2023-05-07T06:28:46;14.90;;;12.13;;
7316;SDS011;3699;51.462;6.696;2023-05-07T06:31:13;12.40;;;10.63;;
7316;SDS011;3699;51.462;6.696;2023-05-07T06:33:42;14.33;;;11.27;;
7316;SDS011;3699;51.462;6.696;2023-05-07T06:36:10;12.53;;;10.40;;
7316;SDS011;3699;51.462;6.696;2023-05-07T06:38:37;11.93;;;9.47;;
7316;SDS011;3699;51.462;6.696;2023-05-07T06:41:05;11.90;;;9.00;;
7316;SDS011;3699;51.462;6.696;2023-05-07T06:43:32;14.03;;;10.07;;
7316;SDS011;3699;51.462;6.696;2023-05-07T06:45:59;9.70;;;8.70;;
7316;SDS011;3699;51.462;6.696;2023-05-07T06:48:27;11.27;;;8.50;;
7316;SDS011;3699;51.462;6.696;2023-05-07T06:50:55;11.07;;;8.93;;
7316;SDS011;3699;51.462;6.696;2023-05-07T06:53:22;13.63;;;8.23;;
7316;SDS011;3699;51.462;6.696;2023-05-07T06:55:49;12.87;;;8.23;;
7316;SDS011;3699;51.462;6.696;2023-05-07T06:58:17;10.57;;;8.23;;
7316;SDS011;3699;51.462;6.696;2023-05-07T07:00:43;10.47;;;7.20;;
7316;SDS011;3699;51.462;6.696;2023-05-07T07:03:10;9.13;;;7.60;;
7316;SDS011;3699;51.462;6.696;2023-05-07T07:05:37;9.00;;;7.47;;
7316;SDS011;3699;51.462;6.696;2023-05-07T07:08:06;20.40;;;8.50;;
7316;SDS011;3699;51.462;6.696;2023-05-07T07:10:32;9.13;;;7.37;;
7316;SDS011;3699;51.462;6.696;2023-05-07T07:12:59;8.40;;;6.93;;
7316;SDS011;3699;51.462;6.696;2023-05-07T07:15:26;8.80;;;6.30;;
7316;SDS011;3699;51.462;6.696;2023-05-07T07:17:53;9.23;;;7.33;;
7316;SDS011;3699;51.462;6.696;2023-05-07T07:20:19;9.13;;;6.93;;
7316;SDS011;3699;51.462;6.696;2023-05-07T07:22:46;8.30;;;6.17;;
7316;SDS011;3699;51.462;6.696;2023-05-07T07:25:15;15.20;;;5.80;;
7316;SDS011;3699;51.462;6.696;2023-05-07T07:27:41;8.73;;;6.00;;
7316;SDS011;3699;51.462;6.696;2023-05-07T07:30:09;7.93;;;6.70;;
7316;SDS011;3699;51.462;6.696;2023-05-07T07:32:35;6.00;;;4.90;;
7316;SDS011;3699;51.462;6.696;2023-05-07T07:35:03;9.03;;;6.60;;
7316;SDS011;3699;51.462;6.696;2023-05-07T07:37:30;10.37;;;6.80;;
7316;SDS011;3699;51.462;6.696;2023-05-07T07:39:58;6.77;;;5.53;;
7316;SDS011;3699;51.462;6.696;2023-05-07T07:42:26;8.53;;;5.30;;
7316;SDS011;3699;51.462;6.696;2023-05-07T07:44:54;6.57;;;5.67;;
7316;SDS011;3699;51.462;6.696;2023-05-07T07:47:22;7.37;;;6.03;;
7316;SDS011;3699;51.462;6.696;2023-05-07T07:49:48;6.07;;;5.30;;
7316;SDS011;3699;51.462;6.696;2023-05-07T07:52:16;9.67;;;6.57;;
7316;SDS011;3699;51.462;6.696;2023-05-07T07:54:42;8.27;;;6.27;;
7316;SDS011;3699;51.462;6.696;2023-05-07T07:57:10;8.80;;;5.90;;
7316;SDS011;3699;51.462;6.696;2023-05-07T07:59:38;9.20;;;5.60;;
7316;SDS011;3699;51.462;6.696;2023-05-07T08:02:07;6.87;;;5.60;;
7316;SDS011;3699;51.462;6.696;2023-05-07T08:04:33;7.97;;;4.97;;
7316;SDS011;3699;51.462;6.696;2023-05-07T08:07:02;5.53;;;4.60;;
7316;SDS011;3699;51.462;6.696;2023-05-07T08:09:28;4.57;;;4.10;;
7316;SDS011;3699;51.462;6.696;2023-05-07T08:11:55;6.50;;;4.93;;
7316;SDS011;3699;51.462;6.696;2023-05-07T08:14:22;6.97;;;4.47;;
7316;SDS011;3699;51.462;6.696;2023-05-07T08:16:50;5.23;;;3.90;;
7316;SDS011;3699;51.462;6.696;2023-05-07T08:19:17;5.97;;;4.30;;
7316;SDS011;3699;51.462;6.696;2023-05-07T08:21:44;5.83;;;4.00;;
7316;SDS011;3699;51.462;6.696;2023-05-07T08:24:12;6.27;;;3.57;;
7316;SDS011;3699;51.462;6.696;2023-05-07T08:26:39;5.43;;;3.33;;
7316;SDS011;3699;51.462;6.696;2023-05-07T08:29:06;5.03;;;3.47;;
7316;SDS011;3699;51.462;6.696;2023-05-07T08:31:33;4.43;;;2.97;;
7316;SDS011;3699;51.462;6.696;2023-05-07T08:34:01;4.30;;;3.90;;
7316;SDS011;3699;51.462;6.696;2023-05-07T08:36:29;4.17;;;3.40;;
7316;SDS011;3699;51.462;6.696;2023-05-07T08:38:56;3.53;;;3.20;;
7316;SDS011;3699;51.462;6.696;2023-05-07T08:41:23;4.30;;;3.67;;
7316;SDS011;3699;51.462;6.696;2023-05-07T08:43:50;3.50;;;3.20;;
7316;SDS011;3699;51.462;6.696;2023-05-07T08:46:17;3.93;;;3.57;;
7316;SDS011;3699;51.462;6.696;2023-05-07T08:48:45;4.30;;;3.70;;
7316;SDS011;3699;51.462;6.696;2023-05-07T08:51:16;7.00;;;3.50;;
7316;SDS011;3699;51.462;6.696;2023-05-07T08:53:45;4.60;;;3.23;;
7316;SDS011;3699;51.462;6.696;2023-05-07T08:56:13;5.70;;;3.70;;
7316;SDS011;3699;51.462;6.696;2023-05-07T08:58:42;4.37;;;3.47;;
7316;SDS011;3699;51.462;6.696;2023-05-07T09:01:09;4.20;;;3.70;;
7316;SDS011;3699;51.462;6.696;2023-05-07T09:03:39;7.03;;;3.43;;
7316;SDS011;3699;51.462;6.696;2023-05-07T09:06:06;6.07;;;4.03;;
7316;SDS011;3699;51.462;6.696;2023-05-07T09:08:34;7.47;;;4.60;;
7316;SDS011;3699;51.462;6.696;2023-05-07T09:11:01;5.73;;;3.60;;
7316;SDS011;3699;51.462;6.696;2023-05-07T09:13:29;5.80;;;4.13;;
7316;SDS011;3699;51.462;6.696;2023-05-07T09:15:56;7.97;;;4.20;;
7316;SDS011;3699;51.462;6.696;2023-05-07T09:18:23;4.83;;;3.80;;
7316;SDS011;3699;51.462;6.696;2023-05-07T09:20:51;7.30;;;4.60;;
7316;SDS011;3699;51.462;6.696;2023-05-07T09:23:18;4.20;;;3.37;;
7316;SDS011;3699;51.462;6.696;2023-05-07T09:25:47;7.30;;;3.57;;
7316;SDS011;3699;51.462;6.696;2023-05-07T09:28:14;5.70;;;3.97;;
7316;SDS011;3699;51.462;6.696;2023-05-07T09:30:41;4.33;;;3.20;;
7316;SDS011;3699;51.462;6.696;2023-05-07T09:33:07;4.50;;;2.90;;
7316;SDS011;3699;51.462;6.696;2023-05-07T09:35:34;6.00;;;3.60;;
7316;SDS011;3699;51.462;6.696;2023-05-07T09:38:01;4.53;;;3.10;;
7316;SDS011;3699;51.462;6.696;2023-05-07T09:40:28;4.67;;;3.23;;
7316;SDS011;3699;51.462;6.696;2023-05-07T09:43:07;3.20;;;2.80;;
7316;SDS011;3699;51.462;6.696;2023-05-07T09:45:36;3.40;;;2.97;;
7316;SDS011;3699;51.462;6.696;2023-05-07T09:48:04;4.57;;;2.83;;
7316;SDS011;3699;51.462;6.696;2023-05-07T09:50:32;5.40;;;3.30;;
7316;SDS011;3699;51.462;6.696;2023-05-07T09:53:03;4.83;;;3.17;;
7316;SDS011;3699;51.462;6.696;2023-05-07T09:55:30;3.40;;;2.93;;
7316;SDS011;3699;51.462;6.696;2023-05-07T09:57:58;2.83;;;2.63;;
7316;SDS011;3699;51.462;6.696;2023-05-07T10:00:27;7.03;;;3.10;;
7316;SDS011;3699;51.462;6.696;2023-05-07T10:02:56;5.37;;;3.57;;
7316;SDS011;3699;51.462;6.696;2023-05-07T10:05:24;3.10;;;2.70;;
7316;SDS011;3699;51.462;6.696;2023-05-07T10:07:52;2.83;;;2.43;;
7316;SDS011;3699;51.462;6.696;2023-05-07T10:10:20;2.83;;;2.10;;
7316;SDS011;3699;51.462;6.696;2023-05-07T10:12:48;2.53;;;2.30;;
7316;SDS011;3699;51.462;6.696;2023-05-07T10:15:17;3.07;;;2.57;;
7316;SDS011;3699;51.462;6.696;2023-05-07T10:17:44;3.63;;;2.77;;
7316;SDS011;3699;51.462;6.696;2023-05-07T10:20:11;3.13;;;2.37;;
7316;SDS011;3699;51.462;6.696;2023-05-07T10:22:38;2.80;;;2.57;;
7316;SDS011;3699;51.462;6.696;2023-05-07T10:25:09;4.17;;;2.70;;
7316;SDS011;3699;51.462;6.696;2023-05-07T10:27:41;3.97;;;2.50;;
7316;SDS011;3699;51.462;6.696;2023-05-07T10:30:12;3.97;;;2.90;;
7316;SDS011;3699;51.462;6.696;2023-05-07T10:32:48;2.87;;;2.33;;
7316;SDS011;3699;51.462;6.696;2023-05-07T10:35:17;5.17;;;2.50;;
7316;SDS011;3699;51.462;6.696;2023-05-07T10:37:46;11.70;;;10.50;;
7316;SDS011;3699;51.462;6.696;2023-05-07T10:40:13;6.70;;;5.70;;
7316;SDS011;3699;51.462;6.696;2023-05-07T10:42:52;15.60;;;14.00;;
7316;SDS011;3699;51.462;6.696;2023-05-07T10:45:23;4.63;;;3.80;;
7316;SDS011;3699;51.462;6.696;2023-05-07T10:48:06;6.10;;;2.97;;
7316;SDS011;3699;51.462;6.696;2023-05-07T10:50:34;5.27;;;3.13;;
7316;SDS011;3699;51.462;6.696;2023-05-07T10:53:20;4.03;;;3.40;;
7316;SDS011;3699;51.462;6.696;2023-05-07T10:58:55;5.20;;;4.50;;
7316;SDS011;3699;51.462;6.696;2023-05-07T11:01:58;3.10;;;2.80;;
7316;SDS011;3699;51.462;6.696;2023-05-07T11:04:27;3.67;;;3.30;;
7316;SDS011;3699;51.462;6.696;2023-05-07T11:07:13;6.37;;;3.90;;
7316;SDS011;3699;51.462;6.696;2023-05-07T11:09:56;10.17;;;8.60;;
7316;SDS011;3699;51.462;6.696;2023-05-07T11:18:08;5.27;;;4.37;;
7316;SDS011;3699;51.462;6.696;2023-05-07T11:20:45;4.67;;;2.90;;
7316;SDS011;3699;51.462;6.696;2023-05-07T11:26:22;4.33;;;3.93;;
7316;SDS011;3699;51.462;6.696;2023-05-07T11:28:50;11.23;;;3.73;;
7316;SDS011;3699;51.462;6.696;2023-05-07T11:31:20;4.17;;;3.37;;
7316;SDS011;3699;51.462;6.696;2023-05-07T11:33:50;7.03;;;6.23;;
7316;SDS011;3699;51.462;6.696;2023-05-07T11:36:17;6.00;;;4.30;;
7316;SDS011;3699;51.462;6.696;2023-05-07T11:38:45;4.80;;;4.40;;
7316;SDS011;3699;51.462;6.696;2023-05-07T11:41:12;6.13;;;4.07;;
7316;SDS011;3699;51.462;6.696;2023-05-07T11:43:53;3.80;;;3.20;;
7316;SDS011;3699;51.462;6.696;2023-05-07T11:46:21;4.20;;;3.10;;
7316;SDS011;3699;51.462;6.696;2023-05-07T11:48:49;5.27;;;2.87;;
7316;SDS011;3699;51.462;6.696;2023-05-07T11:51:18;7.93;;;4.93;;
7316;SDS011;3699;51.462;6.696;2023-05-07T11:53:46;4.53;;;3.60;;
7316;SDS011;3699;51.462;6.696;2023-05-07T11:56:13;3.10;;;2.80;;
7316;SDS011;3699;51.462;6.696;2023-05-07T11:58:41;5.90;;;4.90;;
7316;SDS011;3699;51.462;6.696;2023-05-07T12:01:09;4.97;;;4.57;;
7316;SDS011;3699;51.462;6.696;2023-05-07T12:03:37;6.57;;;5.97;;
7316;SDS011;3699;51.462;6.696;2023-05-07T12:06:08;4.23;;;3.10;;
7316;SDS011;3699;51.462;6.696;2023-05-07T12:08:36;3.60;;;3.27;;
7316;SDS011;3699;51.462;6.696;2023-05-07T12:11:04;3.87;;;3.00;;
7316;SDS011;3699;51.462;6.696;2023-05-07T12:13:33;6.60;;;3.03;;
7316;SDS011;3699;51.462;6.696;2023-05-07T12:16:00;4.90;;;2.93;;
7316;SDS011;3699;51.462;6.696;2023-05-07T12:18:28;3.97;;;2.80;;
7316;SDS011;3699;51.462;6.696;2023-05-07T12:20:56;3.27;;;2.97;;
7316;SDS011;3699;51.462;6.696;2023-05-07T12:23:25;4.30;;;2.90;;
7316;SDS011;3699;51.462;6.696;2023-05-07T12:25:52;4.17;;;3.03;;
7316;SDS011;3699;51.462;6.696;2023-05-07T12:28:19;3.57;;;2.80;;
7316;SDS011;3699;51.462;6.696;2023-05-07T12:30:46;3.77;;;3.07;;
7316;SDS011;3699;51.462;6.696;2023-05-07T12:33:16;5.57;;;3.00;;
7316;SDS011;3699;51.462;6.696;2023-05-07T12:35:43;5.37;;;3.30;;
7316;SDS011;3699;51.462;6.696;2023-05-07T12:38:11;6.03;;;4.10;;
7316;SDS011;3699;51.462;6.696;2023-05-07T12:40:42;6.63;;;4.53;;
7316;SDS011;3699;51.462;6.696;2023-05-07T12:43:14;4.23;;;3.70;;
7316;SDS011;3699;51.462;6.696;2023-05-07T12:45:42;3.63;;;2.73;;
7316;SDS011;3699;51.462;6.696;2023-05-07T12:48:10;5.43;;;3.63;;
7316;SDS011;3699;51.462;6.696;2023-05-07T12:50:37;3.00;;;2.70;;
7316;SDS011;3699;51.462;6.696;2023-05-07T12:53:04;7.70;;;3.43;;
7316;SDS011;3699;51.462;6.696;2023-05-07T12:55:34;4.00;;;3.00;;
7316;SDS011;3699;51.462;6.696;2023-05-07T12:58:08;3.30;;;2.90;;
7316;SDS011;3699;51.462;6.696;2023-05-07T13:00:42;3.63;;;2.90;;
7316;SDS011;3699;51.462;6.696;2023-05-07T13:03:09;3.53;;;3.17;;
7316;SDS011;3699;51.462;6.696;2023-05-07T13:05:36;2.67;;;2.40;;
7316;SDS011;3699;51.462;6.696;2023-05-07T13:08:03;3.60;;;3.23;;
7316;SDS011;3699;51.462;6.696;2023-05-07T13:10:30;3.57;;;3.27;;
7316;SDS011;3699;51.462;6.696;2023-05-07T13:12:58;4.23;;;3.00;;
7316;SDS011;3699;51.462;6.696;2023-05-07T13:15:25;3.37;;;2.93;;
7316;SDS011;3699;51.462;6.696;2023-05-07T13:17:52;11.60;;;4.77;;
7316;SDS011;3699;51.462;6.696;2023-05-07T13:20:19;9.80;;;5.10;;
7316;SDS011;3699;51.462;6.696;2023-05-07T13:22:45;7.40;;;4.60;;
7316;SDS011;3699;51.462;6.696;2023-05-07T13:25:12;6.60;;;4.10;;
7316;SDS011;3699;51.462;6.696;2023-05-07T13:27:39;4.67;;;3.90;;
7316;SDS011;3699;51.462;6.696;2023-05-07T13:30:07;5.57;;;3.10;;
7316;SDS011;3699;51.462;6.696;2023-05-07T13:32:34;4.80;;;4.10;;
7316;SDS011;3699;51.462;6.696;2023-05-07T13:35:01;5.97;;;3.97;;
7316;SDS011;3699;51.462;6.696;2023-05-07T13:37:28;5.07;;;3.83;;
7316;SDS011;3699;51.462;6.696;2023-05-07T13:39:55;3.73;;;3.40;;
7316;SDS011;3699;51.462;6.696;2023-05-07T13:42:22;4.80;;;3.40;;
7316;SDS011;3699;51.462;6.696;2023-05-07T13:44:48;3.63;;;3.33;;
7316;SDS011;3699;51.462;6.696;2023-05-07T13:47:17;3.93;;;3.53;;
7316;SDS011;3699;51.462;6.696;2023-05-07T13:49:43;4.10;;;3.37;;
7316;SDS011;3699;51.462;6.696;2023-05-07T13:52:10;3.60;;;3.30;;
7316;SDS011;3699;51.462;6.696;2023-05-07T13:54:37;6.73;;;4.67;;
7316;SDS011;3699;51.462;6.696;2023-05-07T13:57:04;9.03;;;5.23;;
7316;SDS011;3699;51.462;6.696;2023-05-07T13:59:31;6.40;;;4.47;;
7316;SDS011;3699;51.462;6.696;2023-05-07T14:01:58;7.33;;;5.27;;
7316;SDS011;3699;51.462;6.696;2023-05-07T14:04:26;9.33;;;5.90;;
7316;SDS011;3699;51.462;6.696;2023-05-07T14:06:53;5.00;;;4.50;;
7316;SDS011;3699;51.462;6.696;2023-05-07T14:09:20;5.40;;;4.50;;
7316;SDS011;3699;51.462;6.696;2023-05-07T14:11:47;6.63;;;5.00;;
7316;SDS011;3699;51.462;6.696;2023-05-07T14:14:16;6.90;;;4.93;;
7316;SDS011;3699;51.462;6.696;2023-05-07T14:16:43;6.97;;;4.87;;
7316;SDS011;3699;51.462;6.696;2023-05-07T14:19:10;7.93;;;5.47;;
7316;SDS011;3699;51.462;6.696;2023-05-07T14:21:38;6.30;;;5.37;;
7316;SDS011;3699;51.462;6.696;2023-05-07T14:24:06;6.80;;;5.37;;
7316;SDS011;3699;51.462;6.696;2023-05-07T14:26:33;13.33;;;6.57;;
7316;SDS011;3699;51.462;6.696;2023-05-07T14:29:00;9.80;;;5.43;;
7316;SDS011;3699;51.462;6.696;2023-05-07T14:31:27;5.90;;;4.93;;
7316;SDS011;3699;51.462;6.696;2023-05-07T14:33:55;5.97;;;5.30;;
7316;SDS011;3699;51.462;6.696;2023-05-07T14:36:23;5.53;;;4.93;;
7316;SDS011;3699;51.462;6.696;2023-05-07T14:38:52;5.13;;;4.50;;
7316;SDS011;3699;51.462;6.696;2023-05-07T14:41:19;5.20;;;4.47;;
7316;SDS011;3699;51.462;6.696;2023-05-07T14:43:47;5.70;;;4.77;;
7316;SDS011;3699;51.462;6.696;2023-05-07T14:46:15;7.77;;;5.00;;
7316;SDS011;3699;51.462;6.696;2023-05-07T14:48:43;10.37;;;5.63;;
7316;SDS011;3699;51.462;6.696;2023-05-07T14:51:10;9.30;;;5.73;;
7316;SDS011;3699;51.462;6.696;2023-05-07T14:53:37;16.70;;;7.03;;
7316;SDS011;3699;51.462;6.696;2023-05-07T14:56:05;12.37;;;8.90;;
7316;SDS011;3699;51.462;6.696;2023-05-07T14:58:32;8.87;;;6.47;;
7316;SDS011;3699;51.462;6.696;2023-05-07T15:00:59;10.93;;;6.10;;
7316;SDS011;3699;51.462;6.696;2023-05-07T15:03:26;10.17;;;6.67;;
7316;SDS011;3699;51.462;6.696;2023-05-07T15:05:53;11.80;;;6.77;;
7316;SDS011;3699;51.462;6.696;2023-05-07T15:08:20;8.23;;;6.47;;
7316;SDS011;3699;51.462;6.696;2023-05-07T15:10:47;10.63;;;6.77;;
7316;SDS011;3699;51.462;6.696;2023-05-07T15:13:15;9.10;;;6.40;;
7316;SDS011;3699;51.462;6.696;2023-05-07T15:15:42;10.33;;;6.30;;
7316;SDS011;3699;51.462;6.696;2023-05-07T15:18:10;7.60;;;6.83;;